sensor_id;sensor_type;location;lat;lon;timestamp;P1;durP1;ratioP1;P2;durP2;ratioP2
73331;SDS011;61560;33.718;73.040;2023-03-09T00:01:49;354.25;;;134.15;;
73331;SDS011;61560;33.718;73.040;2023-03-09T00:04:18;348.88;;;133.32;;
73331;SDS011;61560;33.718;73.040;2023-03-09T00:06:45;339.85;;;130.63;;
73331;SDS011;61560;33.718;73.040;2023-03-09T00:09:12;339.08;;;129.60;;
73331;SDS011;61560;33.718;73.040;2023-03-09T00:11:40;346.45;;;130.52;;
73331;SDS011;61560;33.718;73.040;2023-03-09T00:14:07;336.15;;;130.18;;
73331;SDS011;61560;33.718;73.040;2023-03-09T00:16:34;326.13;;;127.68;;
73331;SDS011;61560;33.718;73.040;2023-03-09T00:19:02;326.33;;;126.55;;
73331;SDS011;61560;33.718;73.040;2023-03-09T00:21:29;323.48;;;126.72;;
73331;SDS011;61560;33.718;73.040;2023-03-09T00:24:05;327.58;;;126.82;;
73331;SDS011;61560;33.718;73.040;2023-03-09T00:26:35;339.73;;;130.15;;
73331;SDS011;61560;33.718;73.040;2023-03-09T00:29:06;334.65;;;128.65;;
73331;SDS011;61560;33.718;73.040;2023-03-09T00:31:34;337.23;;;129.45;;
73331;SDS011;61560;33.718;73.040;2023-03-09T00:34:03;302.70;;;120.40;;
73331;SDS011;61560;33.718;73.040;2023-03-09T00:36:29;225.18;;;101.13;;
73331;SDS011;61560;33.718;73.040;2023-03-09T00:38:57;308.80;;;121.45;;
73331;SDS011;61560;33.718;73.040;2023-03-09T00:41:25;302.23;;;120.90;;
73331;SDS011;61560;33.718;73.040;2023-03-09T00:43:54;318.55;;;124.35;;
73331;SDS011;61560;33.718;73.040;2023-03-09T00:46:24;330.63;;;128.05;;
73331;SDS011;61560;33.718;73.040;2023-03-09T00:48:51;330.50;;;127.47;;
73331;SDS011;61560;33.718;73.040;2023-03-09T00:51:17;334.67;;;129.90;;
73331;SDS011;61560;33.718;73.040;2023-03-09T00:53:44;301.17;;;123.45;;
73331;SDS011;61560;33.718;73.040;2023-03-09T00:56:15;300.15;;;121.18;;
73331;SDS011;61560;33.718;73.040;2023-03-09T00:58:46;379.40;;;141.07;;
73331;SDS011;61560;33.718;73.040;2023-03-09T01:01:15;351.05;;;133.05;;
73331;SDS011;61560;33.718;73.040;2023-03-09T01:03:44;348.33;;;132.88;;
73331;SDS011;61560;33.718;73.040;2023-03-09T01:06:11;381.92;;;140.15;;
73331;SDS011;61560;33.718;73.040;2023-03-09T01:08:38;363.67;;;135.55;;
73331;SDS011;61560;33.718;73.040;2023-03-09T01:11:06;331.95;;;128.65;;
73331;SDS011;61560;33.718;73.040;2023-03-09T01:13:36;285.83;;;117.95;;
73331;SDS011;61560;33.718;73.040;2023-03-09T01:16:03;268.55;;;113.75;;
73331;SDS011;61560;33.718;73.040;2023-03-09T01:18:30;268.38;;;114.18;;
73331;SDS011;61560;33.718;73.040;2023-03-09T01:20:57;273.92;;;115.53;;
73331;SDS011;61560;33.718;73.040;2023-03-09T01:23:25;266.00;;;112.80;;
73331;SDS011;61560;33.718;73.040;2023-03-09T01:25:52;272.67;;;113.68;;
73331;SDS011;61560;33.718;73.040;2023-03-09T01:28:22;304.38;;;122.43;;
73331;SDS011;61560;33.718;73.040;2023-03-09T01:30:48;370.35;;;138.25;;
73331;SDS011;61560;33.718;73.040;2023-03-09T01:33:16;342.42;;;132.15;;
73331;SDS011;61560;33.718;73.040;2023-03-09T01:35:43;325.40;;;127.82;;
73331;SDS011;61560;33.718;73.040;2023-03-09T01:38:10;321.40;;;126.25;;
73331;SDS011;61560;33.718;73.040;2023-03-09T01:40:36;308.80;;;123.55;;
73331;SDS011;61560;33.718;73.040;2023-03-09T01:49:10;438.42;;;154.02;;
73331;SDS011;61560;33.718;73.040;2023-03-09T01:54:45;268.63;;;114.45;;
73331;SDS011;61560;33.718;73.040;2023-03-09T01:57:21;266.15;;;112.22;;
73331;SDS011;61560;33.718;73.040;2023-03-09T01:59:55;258.52;;;111.70;;
73331;SDS011;61560;33.718;73.040;2023-03-09T02:02:26;393.85;;;145.38;;
73331;SDS011;61560;33.718;73.040;2023-03-09T02:07:30;297.20;;;122.22;;
73331;SDS011;61560;33.718;73.040;2023-03-09T02:12:52;345.83;;;134.25;;
73331;SDS011;61560;33.718;73.040;2023-03-09T02:15:24;329.98;;;130.50;;
73331;SDS011;61560;33.718;73.040;2023-03-09T02:17:50;322.25;;;129.32;;
73331;SDS011;61560;33.718;73.040;2023-03-09T02:22:47;380.48;;;141.60;;
73331;SDS011;61560;33.718;73.040;2023-03-09T02:27:48;397.85;;;147.73;;
73331;SDS011;61560;33.718;73.040;2023-03-09T02:30:17;387.63;;;144.60;;
73331;SDS011;61560;33.718;73.040;2023-03-09T02:32:43;363.95;;;140.32;;
73331;SDS011;61560;33.718;73.040;2023-03-09T02:35:10;362.00;;;137.80;;
73331;SDS011;61560;33.718;73.040;2023-03-09T02:37:43;351.33;;;137.30;;
73331;SDS011;61560;33.718;73.040;2023-03-09T02:40:21;471.77;;;166.48;;
73331;SDS011;61560;33.718;73.040;2023-03-09T02:42:59;445.70;;;157.65;;
73331;SDS011;61560;33.718;73.040;2023-03-09T02:45:29;435.42;;;156.93;;
73331;SDS011;61560;33.718;73.040;2023-03-09T02:50:50;418.23;;;151.65;;
73331;SDS011;61560;33.718;73.040;2023-03-09T02:53:16;413.63;;;151.18;;
73331;SDS011;61560;33.718;73.040;2023-03-09T02:55:43;410.92;;;151.98;;
73331;SDS011;61560;33.718;73.040;2023-03-09T02:58:11;413.60;;;152.18;;
73331;SDS011;61560;33.718;73.040;2023-03-09T03:00:38;398.90;;;149.77;;
73331;SDS011;61560;33.718;73.040;2023-03-09T03:03:04;413.95;;;151.55;;
73331;SDS011;61560;33.718;73.040;2023-03-09T03:05:32;396.58;;;149.02;;
73331;SDS011;61560;33.718;73.040;2023-03-09T03:07:59;397.25;;;147.85;;
73331;SDS011;61560;33.718;73.040;2023-03-09T03:10:26;393.85;;;146.02;;
73331;SDS011;61560;33.718;73.040;2023-03-09T03:12:54;391.13;;;144.77;;
73331;SDS011;61560;33.718;73.040;2023-03-09T03:15:21;400.92;;;146.20;;
73331;SDS011;61560;33.718;73.040;2023-03-09T03:17:48;354.52;;;137.23;;
73331;SDS011;61560;33.718;73.040;2023-03-09T03:20:15;343.20;;;134.88;;
73331;SDS011;61560;33.718;73.040;2023-03-09T03:22:45;334.05;;;132.85;;
73331;SDS011;61560;33.718;73.040;2023-03-09T03:25:15;345.20;;;137.13;;
73331;SDS011;61560;33.718;73.040;2023-03-09T03:27:45;334.25;;;132.38;;
73331;SDS011;61560;33.718;73.040;2023-03-09T03:30:12;313.73;;;129.35;;
73331;SDS011;61560;33.718;73.040;2023-03-09T03:32:41;279.38;;;122.13;;
73331;SDS011;61560;33.718;73.040;2023-03-09T03:35:09;349.67;;;133.52;;
73331;SDS011;61560;33.718;73.040;2023-03-09T03:37:40;338.00;;;136.15;;
73331;SDS011;61560;33.718;73.040;2023-03-09T03:40:07;340.02;;;134.63;;
73331;SDS011;61560;33.718;73.040;2023-03-09T03:42:36;279.63;;;123.93;;
73331;SDS011;61560;33.718;73.040;2023-03-09T03:45:03;223.13;;;109.50;;
73331;SDS011;61560;33.718;73.040;2023-03-09T03:47:30;175.45;;;90.90;;
73331;SDS011;61560;33.718;73.040;2023-03-09T03:49:58;47.45;;;23.77;;
73331;SDS011;61560;33.718;73.040;2023-03-09T03:52:25;47.85;;;24.17;;
73331;SDS011;61560;33.718;73.040;2023-03-09T03:54:52;75.20;;;37.85;;
73331;SDS011;61560;33.718;73.040;2023-03-09T03:57:19;211.40;;;110.90;;
73331;SDS011;61560;33.718;73.040;2023-03-09T03:59:49;195.98;;;103.40;;
73331;SDS011;61560;33.718;73.040;2023-03-09T04:02:17;161.77;;;87.38;;
73331;SDS011;61560;33.718;73.040;2023-03-09T04:04:45;104.15;;;55.88;;
73331;SDS011;61560;33.718;73.040;2023-03-09T04:07:11;87.28;;;45.55;;
73331;SDS011;61560;33.718;73.040;2023-03-09T04:09:39;101.05;;;46.47;;
73331;SDS011;61560;33.718;73.040;2023-03-09T04:12:05;164.05;;;90.35;;
73331;SDS011;61560;33.718;73.040;2023-03-09T04:14:34;95.60;;;50.58;;
73331;SDS011;61560;33.718;73.040;2023-03-09T04:17:04;85.30;;;44.78;;
73331;SDS011;61560;33.718;73.040;2023-03-09T04:19:31;107.30;;;58.28;;
73331;SDS011;61560;33.718;73.040;2023-03-09T04:21:58;131.77;;;73.72;;
73331;SDS011;61560;33.718;73.040;2023-03-09T04:24:25;135.50;;;68.82;;
73331;SDS011;61560;33.718;73.040;2023-03-09T04:26:51;117.25;;;67.43;;
73331;SDS011;61560;33.718;73.040;2023-03-09T04:29:38;146.20;;;76.40;;
73331;SDS011;61560;33.718;73.040;2023-03-09T04:32:07;124.10;;;67.97;;
73331;SDS011;61560;33.718;73.040;2023-03-09T04:34:39;96.53;;;54.33;;
73331;SDS011;61560;33.718;73.040;2023-03-09T04:37:10;91.90;;;51.88;;
73331;SDS011;61560;33.718;73.040;2023-03-09T04:39:38;99.65;;;55.08;;
73331;SDS011;61560;33.718;73.040;2023-03-09T04:42:07;75.07;;;42.80;;
73331;SDS011;61560;33.718;73.040;2023-03-09T04:44:34;111.47;;;54.15;;
73331;SDS011;61560;33.718;73.040;2023-03-09T04:47:01;95.55;;;52.08;;
73331;SDS011;61560;33.718;73.040;2023-03-09T04:49:30;81.10;;;44.85;;
73331;SDS011;61560;33.718;73.040;2023-03-09T04:51:57;75.93;;;40.40;;
73331;SDS011;61560;33.718;73.040;2023-03-09T04:54:24;81.60;;;43.20;;
73331;SDS011;61560;33.718;73.040;2023-03-09T04:56:50;70.45;;;39.30;;
73331;SDS011;61560;33.718;73.040;2023-03-09T04:59:20;75.03;;;38.50;;
73331;SDS011;61560;33.718;73.040;2023-03-09T05:01:49;73.28;;;39.13;;
73331;SDS011;61560;33.718;73.040;2023-03-09T05:04:21;74.43;;;39.63;;
73331;SDS011;61560;33.718;73.040;2023-03-09T05:06:53;90.05;;;47.55;;
73331;SDS011;61560;33.718;73.040;2023-03-09T05:09:21;84.70;;;44.97;;
73331;SDS011;61560;33.718;73.040;2023-03-09T05:11:48;62.83;;;34.20;;
73331;SDS011;61560;33.718;73.040;2023-03-09T05:14:20;63.53;;;36.50;;
73331;SDS011;61560;33.718;73.040;2023-03-09T05:16:51;64.45;;;33.85;;
73331;SDS011;61560;33.718;73.040;2023-03-09T05:19:21;70.15;;;32.83;;
73331;SDS011;61560;33.718;73.040;2023-03-09T05:21:54;61.90;;;32.97;;
73331;SDS011;61560;33.718;73.040;2023-03-09T05:24:21;76.88;;;37.55;;
73331;SDS011;61560;33.718;73.040;2023-03-09T05:26:47;77.97;;;37.38;;
73331;SDS011;61560;33.718;73.040;2023-03-09T05:29:16;79.20;;;37.75;;
73331;SDS011;61560;33.718;73.040;2023-03-09T05:31:42;66.97;;;37.65;;
73331;SDS011;61560;33.718;73.040;2023-03-09T05:34:13;54.17;;;31.45;;
73331;SDS011;61560;33.718;73.040;2023-03-09T05:36:39;59.50;;;33.17;;
73331;SDS011;61560;33.718;73.040;2023-03-09T05:39:15;63.38;;;36.53;;
73331;SDS011;61560;33.718;73.040;2023-03-09T05:41:42;63.25;;;33.97;;
73331;SDS011;61560;33.718;73.040;2023-03-09T05:44:16;73.00;;;41.05;;
73331;SDS011;61560;33.718;73.040;2023-03-09T05:46:43;69.85;;;40.58;;
73331;SDS011;61560;33.718;73.040;2023-03-09T05:49:10;64.65;;;37.30;;
73331;SDS011;61560;33.718;73.040;2023-03-09T05:51:37;82.03;;;41.10;;
73331;SDS011;61560;33.718;73.040;2023-03-09T05:54:04;70.35;;;42.08;;
73331;SDS011;61560;33.718;73.040;2023-03-09T05:56:35;78.78;;;42.50;;
73331;SDS011;61560;33.718;73.040;2023-03-09T05:59:04;93.88;;;50.80;;
73331;SDS011;61560;33.718;73.040;2023-03-09T06:01:30;85.30;;;46.60;;
73331;SDS011;61560;33.718;73.040;2023-03-09T06:04:09;105.70;;;59.15;;
73331;SDS011;61560;33.718;73.040;2023-03-09T06:06:38;123.25;;;66.68;;
73331;SDS011;61560;33.718;73.040;2023-03-09T06:09:05;131.32;;;75.03;;
73331;SDS011;61560;33.718;73.040;2023-03-09T06:11:33;158.23;;;87.80;;
73331;SDS011;61560;33.718;73.040;2023-03-09T06:14:00;143.93;;;85.78;;
73331;SDS011;61560;33.718;73.040;2023-03-09T06:16:34;133.88;;;75.30;;
73331;SDS011;61560;33.718;73.040;2023-03-09T06:19:01;116.50;;;67.90;;
73331;SDS011;61560;33.718;73.040;2023-03-09T06:21:29;124.63;;;69.82;;
73331;SDS011;61560;33.718;73.040;2023-03-09T06:23:56;104.68;;;59.88;;
73331;SDS011;61560;33.718;73.040;2023-03-09T06:26:25;111.45;;;63.90;;
73331;SDS011;61560;33.718;73.040;2023-03-09T06:28:57;124.25;;;71.25;;
73331;SDS011;61560;33.718;73.040;2023-03-09T06:31:24;146.73;;;85.68;;
73331;SDS011;61560;33.718;73.040;2023-03-09T06:33:53;148.93;;;85.97;;
73331;SDS011;61560;33.718;73.040;2023-03-09T06:36:22;155.57;;;90.43;;
73331;SDS011;61560;33.718;73.040;2023-03-09T06:38:51;142.23;;;83.97;;
73331;SDS011;61560;33.718;73.040;2023-03-09T06:41:22;146.18;;;85.07;;
73331;SDS011;61560;33.718;73.040;2023-03-09T06:44:27;137.23;;;79.00;;
73331;SDS011;61560;33.718;73.040;2023-03-09T06:46:54;118.35;;;71.43;;
73331;SDS011;61560;33.718;73.040;2023-03-09T06:49:23;148.25;;;85.13;;
73331;SDS011;61560;33.718;73.040;2023-03-09T06:51:53;134.60;;;78.95;;
73331;SDS011;61560;33.718;73.040;2023-03-09T06:54:19;150.73;;;83.95;;
73331;SDS011;61560;33.718;73.040;2023-03-09T06:56:54;145.82;;;80.95;;
73331;SDS011;61560;33.718;73.040;2023-03-09T06:59:22;135.90;;;80.78;;
73331;SDS011;61560;33.718;73.040;2023-03-09T07:01:49;152.73;;;87.25;;
73331;SDS011;61560;33.718;73.040;2023-03-09T07:04:16;170.65;;;93.13;;
73331;SDS011;61560;33.718;73.040;2023-03-09T07:06:43;168.02;;;92.10;;
73331;SDS011;61560;33.718;73.040;2023-03-09T07:09:11;172.48;;;93.10;;
73331;SDS011;61560;33.718;73.040;2023-03-09T07:11:37;145.02;;;82.03;;
73331;SDS011;61560;33.718;73.040;2023-03-09T07:14:04;137.73;;;81.85;;
73331;SDS011;61560;33.718;73.040;2023-03-09T07:16:30;142.48;;;84.20;;
73331;SDS011;61560;33.718;73.040;2023-03-09T07:18:56;147.13;;;83.18;;
73331;SDS011;61560;33.718;73.040;2023-03-09T07:21:23;182.30;;;97.28;;
73331;SDS011;61560;33.718;73.040;2023-03-09T07:23:50;147.73;;;83.50;;
73331;SDS011;61560;33.718;73.040;2023-03-09T07:26:17;152.35;;;88.15;;
73331;SDS011;61560;33.718;73.040;2023-03-09T07:28:45;167.43;;;93.57;;
73331;SDS011;61560;33.718;73.040;2023-03-09T07:31:12;146.40;;;85.20;;
73331;SDS011;61560;33.718;73.040;2023-03-09T07:33:39;140.95;;;84.20;;
73331;SDS011;61560;33.718;73.040;2023-03-09T07:36:06;158.02;;;88.50;;
73331;SDS011;61560;33.718;73.040;2023-03-09T07:38:35;176.93;;;96.47;;
73331;SDS011;61560;33.718;73.040;2023-03-09T07:41:01;162.27;;;91.18;;
73331;SDS011;61560;33.718;73.040;2023-03-09T07:43:31;149.18;;;87.70;;
73331;SDS011;61560;33.718;73.040;2023-03-09T07:46:06;147.40;;;83.05;;
73331;SDS011;61560;33.718;73.040;2023-03-09T07:48:33;147.68;;;82.80;;
73331;SDS011;61560;33.718;73.040;2023-03-09T07:51:00;142.18;;;80.53;;
73331;SDS011;61560;33.718;73.040;2023-03-09T07:53:28;144.02;;;87.03;;
73331;SDS011;61560;33.718;73.040;2023-03-09T07:55:56;158.02;;;89.00;;
73331;SDS011;61560;33.718;73.040;2023-03-09T07:58:25;153.88;;;87.25;;
73331;SDS011;61560;33.718;73.040;2023-03-09T08:00:52;164.95;;;91.47;;
73331;SDS011;61560;33.718;73.040;2023-03-09T08:03:18;165.85;;;92.53;;
73331;SDS011;61560;33.718;73.040;2023-03-09T08:05:45;179.32;;;95.15;;
73331;SDS011;61560;33.718;73.040;2023-03-09T08:08:13;174.20;;;97.22;;
73331;SDS011;61560;33.718;73.040;2023-03-09T08:10:40;167.20;;;91.20;;
73331;SDS011;61560;33.718;73.040;2023-03-09T08:13:13;156.25;;;89.03;;
73331;SDS011;61560;33.718;73.040;2023-03-09T08:15:39;179.20;;;94.18;;
73331;SDS011;61560;33.718;73.040;2023-03-09T08:18:07;164.23;;;90.88;;
73331;SDS011;61560;33.718;73.040;2023-03-09T08:20:33;168.52;;;90.82;;
73331;SDS011;61560;33.718;73.040;2023-03-09T08:23:02;169.88;;;95.45;;
73331;SDS011;61560;33.718;73.040;2023-03-09T08:25:29;166.30;;;92.95;;
73331;SDS011;61560;33.718;73.040;2023-03-09T08:27:57;152.25;;;86.22;;
73331;SDS011;61560;33.718;73.040;2023-03-09T08:30:24;152.10;;;85.03;;
73331;SDS011;61560;33.718;73.040;2023-03-09T08:32:53;141.52;;;82.60;;
73331;SDS011;61560;33.718;73.040;2023-03-09T08:35:23;153.68;;;86.82;;
73331;SDS011;61560;33.718;73.040;2023-03-09T08:37:54;153.93;;;89.70;;
73331;SDS011;61560;33.718;73.040;2023-03-09T08:40:20;154.93;;;87.75;;
73331;SDS011;61560;33.718;73.040;2023-03-09T08:42:47;160.25;;;90.18;;
73331;SDS011;61560;33.718;73.040;2023-03-09T08:45:14;135.80;;;79.15;;
73331;SDS011;61560;33.718;73.040;2023-03-09T08:47:40;133.80;;;75.40;;
73331;SDS011;61560;33.718;73.040;2023-03-09T08:50:07;122.85;;;72.25;;
73331;SDS011;61560;33.718;73.040;2023-03-09T08:52:35;117.80;;;69.13;;
73331;SDS011;61560;33.718;73.040;2023-03-09T08:55:05;114.38;;;68.75;;
73331;SDS011;61560;33.718;73.040;2023-03-09T08:57:33;126.07;;;70.85;;
73331;SDS011;61560;33.718;73.040;2023-03-09T09:00:00;109.30;;;65.03;;
73331;SDS011;61560;33.718;73.040;2023-03-09T09:02:27;104.57;;;58.55;;
73331;SDS011;61560;33.718;73.040;2023-03-09T09:04:53;105.20;;;56.65;;
73331;SDS011;61560;33.718;73.040;2023-03-09T09:07:21;104.60;;;55.63;;
73331;SDS011;61560;33.718;73.040;2023-03-09T09:09:48;95.55;;;53.13;;
73331;SDS011;61560;33.718;73.040;2023-03-09T09:12:15;86.07;;;51.22;;
73331;SDS011;61560;33.718;73.040;2023-03-09T09:14:42;97.53;;;55.15;;
73331;SDS011;61560;33.718;73.040;2023-03-09T09:17:09;86.57;;;50.55;;
73331;SDS011;61560;33.718;73.040;2023-03-09T09:19:37;98.95;;;55.05;;
73331;SDS011;61560;33.718;73.040;2023-03-09T09:22:06;90.90;;;50.95;;
73331;SDS011;61560;33.718;73.040;2023-03-09T09:24:35;96.18;;;55.78;;
73331;SDS011;61560;33.718;73.040;2023-03-09T09:27:03;96.72;;;56.83;;
73331;SDS011;61560;33.718;73.040;2023-03-09T09:29:34;88.78;;;51.47;;
73331;SDS011;61560;33.718;73.040;2023-03-09T09:32:03;105.07;;;59.78;;
73331;SDS011;61560;33.718;73.040;2023-03-09T09:34:31;105.32;;;56.65;;
73331;SDS011;61560;33.718;73.040;2023-03-09T09:36:59;100.95;;;56.05;;
73331;SDS011;61560;33.718;73.040;2023-03-09T09:39:27;107.72;;;58.70;;
73331;SDS011;61560;33.718;73.040;2023-03-09T09:41:57;111.38;;;64.40;;
73331;SDS011;61560;33.718;73.040;2023-03-09T09:44:28;126.78;;;72.05;;
73331;SDS011;61560;33.718;73.040;2023-03-09T09:47:12;115.30;;;64.75;;
73331;SDS011;61560;33.718;73.040;2023-03-09T09:49:44;119.72;;;66.05;;
73331;SDS011;61560;33.718;73.040;2023-03-09T09:55:01;122.32;;;70.53;;
73331;SDS011;61560;33.718;73.040;2023-03-09T10:08:20;137.20;;;74.32;;
73331;SDS011;61560;33.718;73.040;2023-03-09T10:13:44;114.60;;;68.38;;
73331;SDS011;61560;33.718;73.040;2023-03-09T10:16:25;118.20;;;68.35;;
73331;SDS011;61560;33.718;73.040;2023-03-09T10:18:59;117.28;;;68.45;;
73331;SDS011;61560;33.718;73.040;2023-03-09T10:21:41;116.97;;;67.22;;
73331;SDS011;61560;33.718;73.040;2023-03-09T10:24:25;106.50;;;65.57;;
73331;SDS011;61560;33.718;73.040;2023-03-09T10:29:22;102.15;;;61.15;;
73331;SDS011;61560;33.718;73.040;2023-03-09T10:32:02;123.53;;;68.97;;
73331;SDS011;61560;33.718;73.040;2023-03-09T10:34:40;405.73;;;144.10;;
73331;SDS011;61560;33.718;73.040;2023-03-09T10:37:20;294.10;;;122.57;;
73331;SDS011;61560;33.718;73.040;2023-03-09T10:39:51;250.95;;;112.22;;
73331;SDS011;61560;33.718;73.040;2023-03-09T10:42:19;247.50;;;111.22;;
73331;SDS011;61560;33.718;73.040;2023-03-09T10:44:56;250.15;;;110.78;;
73331;SDS011;61560;33.718;73.040;2023-03-09T10:50:14;245.43;;;109.80;;
73331;SDS011;61560;33.718;73.040;2023-03-09T10:52:41;230.13;;;106.70;;
73331;SDS011;61560;33.718;73.040;2023-03-09T10:55:43;221.10;;;105.18;;
73331;SDS011;61560;33.718;73.040;2023-03-09T10:58:19;208.20;;;101.03;;
73331;SDS011;61560;33.718;73.040;2023-03-09T11:03:22;154.48;;;82.82;;
73331;SDS011;61560;33.718;73.040;2023-03-09T11:05:51;160.10;;;84.15;;
73331;SDS011;61560;33.718;73.040;2023-03-09T11:08:25;138.00;;;76.53;;
73331;SDS011;61560;33.718;73.040;2023-03-09T11:11:02;149.23;;;80.07;;
73331;SDS011;61560;33.718;73.040;2023-03-09T11:13:32;133.85;;;74.60;;
73331;SDS011;61560;33.718;73.040;2023-03-09T11:16:06;137.80;;;76.70;;
73331;SDS011;61560;33.718;73.040;2023-03-09T11:21:07;169.70;;;86.88;;
73331;SDS011;61560;33.718;73.040;2023-03-09T11:23:38;148.73;;;79.68;;
73331;SDS011;61560;33.718;73.040;2023-03-09T11:26:10;151.27;;;81.05;;
73331;SDS011;61560;33.718;73.040;2023-03-09T11:31:48;164.82;;;84.65;;
73331;SDS011;61560;33.718;73.040;2023-03-09T11:34:22;150.73;;;79.28;;
73331;SDS011;61560;33.718;73.040;2023-03-09T11:36:57;151.30;;;81.20;;
73331;SDS011;61560;33.718;73.040;2023-03-09T11:39:35;158.50;;;83.72;;
73331;SDS011;61560;33.718;73.040;2023-03-09T11:42:14;159.85;;;84.05;;
73331;SDS011;61560;33.718;73.040;2023-03-09T11:44:46;162.63;;;84.18;;
73331;SDS011;61560;33.718;73.040;2023-03-09T11:50:11;161.32;;;84.28;;
73331;SDS011;61560;33.718;73.040;2023-03-09T11:52:44;164.70;;;86.97;;
73331;SDS011;61560;33.718;73.040;2023-03-09T11:55:22;176.20;;;90.55;;
73331;SDS011;61560;33.718;73.040;2023-03-09T11:57:56;164.77;;;86.88;;
73331;SDS011;61560;33.718;73.040;2023-03-09T12:00:28;181.07;;;90.90;;
73331;SDS011;61560;33.718;73.040;2023-03-09T12:03:09;161.25;;;86.47;;
73331;SDS011;61560;33.718;73.040;2023-03-09T12:05:46;180.98;;;90.45;;
73331;SDS011;61560;33.718;73.040;2023-03-09T12:08:30;171.05;;;89.55;;
73331;SDS011;61560;33.718;73.040;2023-03-09T12:19:03;238.27;;;108.90;;
73331;SDS011;61560;33.718;73.040;2023-03-09T12:21:38;226.63;;;104.50;;
73331;SDS011;61560;33.718;73.040;2023-03-09T12:24:27;207.90;;;99.95;;
73331;SDS011;61560;33.718;73.040;2023-03-09T12:27:19;217.32;;;101.88;;
73331;SDS011;61560;33.718;73.040;2023-03-09T12:30:18;210.98;;;100.57;;
73331;SDS011;61560;33.718;73.040;2023-03-09T12:32:46;211.35;;;100.95;;
73331;SDS011;61560;33.718;73.040;2023-03-09T12:38:18;226.35;;;105.22;;
73331;SDS011;61560;33.718;73.040;2023-03-09T12:40:48;244.35;;;109.15;;
73331;SDS011;61560;33.718;73.040;2023-03-09T12:45:48;239.90;;;108.30;;
73331;SDS011;61560;33.718;73.040;2023-03-09T12:51:00;259.35;;;114.53;;
73331;SDS011;61560;33.718;73.040;2023-03-09T12:56:23;284.33;;;119.63;;
73331;SDS011;61560;33.718;73.040;2023-03-09T12:58:52;282.60;;;119.97;;
73331;SDS011;61560;33.718;73.040;2023-03-09T13:06:52;342.67;;;132.82;;
73331;SDS011;61560;33.718;73.040;2023-03-09T13:09:26;340.95;;;132.88;;
73331;SDS011;61560;33.718;73.040;2023-03-09T13:17:07;324.60;;;128.73;;
73331;SDS011;61560;33.718;73.040;2023-03-09T13:23:07;335.30;;;129.50;;
73331;SDS011;61560;33.718;73.040;2023-03-09T13:25:41;345.30;;;131.57;;
73331;SDS011;61560;33.718;73.040;2023-03-09T13:28:16;343.10;;;130.90;;
73331;SDS011;61560;33.718;73.040;2023-03-09T13:30:44;378.08;;;139.80;;
73331;SDS011;61560;33.718;73.040;2023-03-09T13:33:15;373.65;;;137.43;;
73331;SDS011;61560;33.718;73.040;2023-03-09T13:35:48;389.40;;;140.85;;
73331;SDS011;61560;33.718;73.040;2023-03-09T13:38:31;393.13;;;141.95;;
73331;SDS011;61560;33.718;73.040;2023-03-09T13:41:02;406.77;;;144.93;;
73331;SDS011;61560;33.718;73.040;2023-03-09T13:43:32;403.33;;;142.82;;
73331;SDS011;61560;33.718;73.040;2023-03-09T13:46:02;404.58;;;144.05;;
73331;SDS011;61560;33.718;73.040;2023-03-09T13:48:45;421.50;;;148.50;;
73331;SDS011;61560;33.718;73.040;2023-03-09T13:51:26;446.85;;;152.80;;
73331;SDS011;61560;33.718;73.040;2023-03-09T13:53:56;471.27;;;160.23;;
73331;SDS011;61560;33.718;73.040;2023-03-09T13:56:23;472.52;;;159.23;;
73331;SDS011;61560;33.718;73.040;2023-03-09T13:58:50;473.50;;;159.77;;
73331;SDS011;61560;33.718;73.040;2023-03-09T14:01:19;475.17;;;160.25;;
73331;SDS011;61560;33.718;73.040;2023-03-09T14:03:47;471.60;;;159.82;;
73331;SDS011;61560;33.718;73.040;2023-03-09T14:06:36;466.65;;;157.57;;
73331;SDS011;61560;33.718;73.040;2023-03-09T14:11:58;471.27;;;159.65;;
73331;SDS011;61560;33.718;73.040;2023-03-09T14:14:25;464.55;;;157.55;;
73331;SDS011;61560;33.718;73.040;2023-03-09T14:16:53;462.40;;;156.40;;
73331;SDS011;61560;33.718;73.040;2023-03-09T14:19:21;461.38;;;156.55;;
73331;SDS011;61560;33.718;73.040;2023-03-09T14:21:51;458.08;;;155.52;;
73331;SDS011;61560;33.718;73.040;2023-03-09T14:26:55;456.83;;;155.27;;
73331;SDS011;61560;33.718;73.040;2023-03-09T14:29:36;462.60;;;155.80;;
73331;SDS011;61560;33.718;73.040;2023-03-09T14:34:56;455.23;;;154.82;;
73331;SDS011;61560;33.718;73.040;2023-03-09T14:37:53;457.52;;;153.38;;
73331;SDS011;61560;33.718;73.040;2023-03-09T14:40:26;450.77;;;152.32;;
73331;SDS011;61560;33.718;73.040;2023-03-09T14:45:45;465.75;;;156.98;;
73331;SDS011;61560;33.718;73.040;2023-03-09T14:48:12;468.50;;;157.38;;
73331;SDS011;61560;33.718;73.040;2023-03-09T14:50:39;459.65;;;154.18;;
73331;SDS011;61560;33.718;73.040;2023-03-09T14:53:15;461.27;;;155.55;;
73331;SDS011;61560;33.718;73.040;2023-03-09T14:55:44;462.42;;;154.75;;
73331;SDS011;61560;33.718;73.040;2023-03-09T14:58:11;458.30;;;154.40;;
73331;SDS011;61560;33.718;73.040;2023-03-09T15:00:38;466.73;;;157.13;;
73331;SDS011;61560;33.718;73.040;2023-03-09T15:03:07;465.65;;;156.95;;
73331;SDS011;61560;33.718;73.040;2023-03-09T15:05:34;466.42;;;156.32;;
73331;SDS011;61560;33.718;73.040;2023-03-09T15:08:01;470.55;;;157.95;;
73331;SDS011;61560;33.718;73.040;2023-03-09T15:10:28;481.10;;;159.93;;
73331;SDS011;61560;33.718;73.040;2023-03-09T15:12:56;488.25;;;162.43;;
73331;SDS011;61560;33.718;73.040;2023-03-09T15:15:25;499.52;;;165.90;;
73331;SDS011;61560;33.718;73.040;2023-03-09T15:17:52;522.42;;;171.38;;
73331;SDS011;61560;33.718;73.040;2023-03-09T15:20:22;504.45;;;167.27;;
73331;SDS011;61560;33.718;73.040;2023-03-09T15:22:50;503.35;;;165.70;;
73331;SDS011;61560;33.718;73.040;2023-03-09T15:25:20;503.50;;;166.63;;
73331;SDS011;61560;33.718;73.040;2023-03-09T15:27:46;498.23;;;165.15;;
73331;SDS011;61560;33.718;73.040;2023-03-09T15:30:14;459.80;;;155.10;;
73331;SDS011;61560;33.718;73.040;2023-03-09T15:32:42;459.90;;;155.32;;
73331;SDS011;61560;33.718;73.040;2023-03-09T15:35:13;453.10;;;153.43;;
73331;SDS011;61560;33.718;73.040;2023-03-09T15:37:41;460.40;;;152.57;;
73331;SDS011;61560;33.718;73.040;2023-03-09T15:40:11;452.42;;;153.27;;
73331;SDS011;61560;33.718;73.040;2023-03-09T15:42:39;454.88;;;154.38;;
73331;SDS011;61560;33.718;73.040;2023-03-09T15:45:08;455.98;;;153.55;;
73331;SDS011;61560;33.718;73.040;2023-03-09T15:47:39;453.52;;;153.20;;
73331;SDS011;61560;33.718;73.040;2023-03-09T15:50:06;449.08;;;152.38;;